createdAt,value
2018-07-27T00:02:26.001Z,7.47
2018-07-27T00:05:23.461Z,9.30
2018-07-27T00:08:20.804Z,5.03
2018-07-27T00:11:18.484Z,6.50
2018-07-27T00:14:15.915Z,7.97
2018-07-27T00:17:13.416Z,6.20
2018-07-27T00:20:10.816Z,5.33
2018-07-27T00:23:08.637Z,8.13
2018-07-27T00:26:05.704Z,5.33
2018-07-27T00:29:03.136Z,7.97
2018-07-27T00:32:00.416Z,5.77
2018-07-27T00:34:57.720Z,5.40
2018-07-27T00:37:55.130Z,5.50
2018-07-27T00:40:53.100Z,6.03
2018-07-27T00:43:51.071Z,5.67
2018-07-27T00:46:48.940Z,5.90
2018-07-27T00:49:45.991Z,8.57
2018-07-27T00:52:43.256Z,6.80
2018-07-27T00:55:40.362Z,5.33
2018-07-27T00:58:38.491Z,6.87
2018-07-27T01:01:35.635Z,10.23
2018-07-27T01:04:33.732Z,6.13
2018-07-27T01:07:31.307Z,6.03
2018-07-27T01:10:28.744Z,9.17
2018-07-27T01:13:26.736Z,6.20
2018-07-27T01:16:23.814Z,5.20
2018-07-27T01:19:21.397Z,5.67
2018-07-27T01:22:18.672Z,7.80
2018-07-27T01:25:15.725Z,6.47
2018-07-27T01:28:12.854Z,5.27
2018-07-27T01:31:10.786Z,6.93
2018-07-27T01:34:07.939Z,6.30
2018-07-27T01:37:05.320Z,7.40
2018-07-27T01:40:02.904Z,6.20
2018-07-27T01:43:00.625Z,6.20
2018-07-27T01:45:57.886Z,7.63
2018-07-27T01:48:55.252Z,6.20
2018-07-27T01:51:52.899Z,6.50
2018-07-27T01:54:50.999Z,6.57
2018-07-27T01:57:48.456Z,8.17
2018-07-27T02:00:45.818Z,6.33
2018-07-27T02:03:43.534Z,9.13
2018-07-27T02:06:41.428Z,7.03
2018-07-27T02:09:39.466Z,7.53
2018-07-27T02:12:36.899Z,7.10
2018-07-27T02:15:34.955Z,6.87
2018-07-27T02:18:32.432Z,6.10
2018-07-27T02:21:30.132Z,7.70
2018-07-27T02:24:27.330Z,5.13
2018-07-27T02:27:24.318Z,6.37
2018-07-27T02:30:21.391Z,6.87
2018-07-27T02:33:18.886Z,7.23
2018-07-27T02:36:16.839Z,7.93
2018-07-27T02:39:14.044Z,6.27
2018-07-27T02:42:11.529Z,9.10
2018-07-27T02:45:08.859Z,6.90
2018-07-27T02:48:06.652Z,6.40
2018-07-27T02:51:03.788Z,6.47
2018-07-27T02:54:01.075Z,9.83
2018-07-27T02:56:58.303Z,8.63
2018-07-27T02:59:55.200Z,8.27
2018-07-27T03:02:53.234Z,8.63
2018-07-27T03:05:51.100Z,6.93
2018-07-27T03:08:48.052Z,6.40
2018-07-27T03:11:45.106Z,7.83
2018-07-27T03:14:42.467Z,10.00
2018-07-27T03:17:39.618Z,8.07
2018-07-27T03:20:37.488Z,9.00
2018-07-27T03:23:35.256Z,11.43
2018-07-27T03:26:33.244Z,7.90
2018-07-27T03:29:31.440Z,7.00
2018-07-27T03:32:29.371Z,7.27
2018-07-27T03:35:26.772Z,8.03
2018-07-27T03:38:23.976Z,6.57
2018-07-27T03:41:22.990Z,7.27
2018-07-27T03:44:21.181Z,8.03
2018-07-27T03:47:18.443Z,7.80
2018-07-27T03:50:15.615Z,7.47
2018-07-27T03:53:12.943Z,8.10
2018-07-27T03:56:10.226Z,11.03
2018-07-27T03:59:07.353Z,13.07
2018-07-27T04:02:04.641Z,8.30
2018-07-27T04:05:01.900Z,10.17
2018-07-27T04:07:59.276Z,7.20
2018-07-27T04:10:56.632Z,6.23
2018-07-27T04:13:54.548Z,6.27
2018-07-27T04:16:52.656Z,9.10
2018-07-27T04:19:49.703Z,6.67
2018-07-27T04:22:46.681Z,6.67
2018-07-27T04:25:43.911Z,6.23
2018-07-27T04:28:41.679Z,7.73
2018-07-27T04:31:39.482Z,6.87
2018-07-27T04:34:36.624Z,8.80
2018-07-27T04:37:33.744Z,7.63
2018-07-27T04:40:30.903Z,8.60
2018-07-27T04:43:28.720Z,7.80
2018-07-27T04:46:25.895Z,9.00
2018-07-27T04:49:23.190Z,8.17
2018-07-27T04:52:20.366Z,6.60
2018-07-27T04:55:18.015Z,6.70
2018-07-27T04:58:16.224Z,7.83
2018-07-27T05:01:13.552Z,6.60
2018-07-27T05:04:10.724Z,6.57
2018-07-27T05:07:08.384Z,6.87
2018-07-27T05:10:05.763Z,6.78
2018-07-27T05:13:03.913Z,7.60
2018-07-27T05:16:01.507Z,6.60
2018-07-27T05:18:59.067Z,8.03
2018-07-27T05:21:56.719Z,11.85
2018-07-27T05:24:54.894Z,7.03
2018-07-27T05:27:51.932Z,5.90
2018-07-27T05:30:49.307Z,7.00
2018-07-27T05:33:46.630Z,6.10
2018-07-27T05:36:43.902Z,5.65
2018-07-27T05:39:41.720Z,7.40
2018-07-27T05:42:39.679Z,8.75
2018-07-27T05:45:37.333Z,8.25
2018-07-27T05:48:34.697Z,11.48
2018-07-27T05:51:32.287Z,6.50
2018-07-27T05:54:30.230Z,6.60
2018-07-27T05:57:27.543Z,8.28
2018-07-27T06:00:24.524Z,6.50
2018-07-27T06:03:21.689Z,6.50
2018-07-27T06:06:19.064Z,7.87
2018-07-27T06:09:17.243Z,8.73
2018-07-27T06:12:14.763Z,6.05
2018-07-27T06:15:12.907Z,7.67
2018-07-27T06:18:10.075Z,6.12
2018-07-27T06:21:07.777Z,6.65
2018-07-27T06:24:05.022Z,6.08
2018-07-27T06:27:02.980Z,6.08
2018-07-27T06:30:00.097Z,8.28
2018-07-27T06:32:57.961Z,6.87
2018-07-27T06:35:56.045Z,5.90
2018-07-27T06:38:53.320Z,5.47
2018-07-27T06:41:50.387Z,10.03
2018-07-27T06:44:48.458Z,8.55
2018-07-27T06:47:45.594Z,8.90
2018-07-27T06:50:43.258Z,6.60
2018-07-27T06:53:40.622Z,7.67
2018-07-27T06:56:38.351Z,8.38
2018-07-27T06:59:35.980Z,5.97
2018-07-27T07:02:33.883Z,5.50
2018-07-27T07:05:31.324Z,5.97
2018-07-27T07:08:28.858Z,5.92
2018-07-27T07:11:26.226Z,5.40
2018-07-27T07:14:23.364Z,9.38
2018-07-27T07:17:20.737Z,6.58
2018-07-27T07:20:17.923Z,7.00
2018-07-27T07:23:15.668Z,7.47
2018-07-27T07:26:13.262Z,5.60
2018-07-27T07:29:10.890Z,6.80
2018-07-27T07:32:08.016Z,6.03
2018-07-27T07:35:05.213Z,7.47
2018-07-27T07:38:02.235Z,8.03
2018-07-27T07:40:59.439Z,6.00
2018-07-27T07:43:57.017Z,6.60
2018-07-27T07:46:54.008Z,5.28
2018-07-27T07:49:51.496Z,5.90
2018-07-27T07:52:48.749Z,5.45
2018-07-27T07:55:45.799Z,6.22
2018-07-27T07:58:43.184Z,7.97
2018-07-27T08:01:40.715Z,5.75
2018-07-27T08:04:38.554Z,8.33
2018-07-27T08:07:35.605Z,5.80
2018-07-27T08:10:33.704Z,12.05
2018-07-27T08:13:31.896Z,6.00
2018-07-27T08:16:29.911Z,5.80
2018-07-27T08:19:27.148Z,6.83
2018-07-27T08:22:24.340Z,6.62
2018-07-27T08:25:22.396Z,6.28
2018-07-27T08:28:31.588Z,8.93
2018-07-27T08:31:28.914Z,5.95
2018-07-27T08:34:26.435Z,7.15
2018-07-27T08:37:23.468Z,6.17
2018-07-27T08:40:20.860Z,6.05
2018-07-27T08:43:18.907Z,5.55
2018-07-27T08:46:16.293Z,5.75
2018-07-27T08:49:13.616Z,6.45
2018-07-27T08:52:10.988Z,6.45
2018-07-27T08:55:15.355Z,6.17
2018-07-27T08:58:12.492Z,5.67
2018-07-27T09:01:14.940Z,6.00
2018-07-27T09:04:12.141Z,5.53
2018-07-27T09:07:10.298Z,5.35
2018-07-27T09:10:07.591Z,4.90
2018-07-27T09:13:04.871Z,4.55
2018-07-27T09:16:02.933Z,5.92
2018-07-27T09:19:01.012Z,6.03
2018-07-27T09:21:58.312Z,5.90
2018-07-27T09:24:56.268Z,5.62
2018-07-27T09:27:53.972Z,4.75
2018-07-27T09:30:51.194Z,5.65
2018-07-27T09:33:48.485Z,5.50
2018-07-27T09:36:45.847Z,5.10
2018-07-27T09:39:43.105Z,6.33
2018-07-27T09:42:40.372Z,4.87
2018-07-27T09:45:37.792Z,5.85
2018-07-27T09:48:35.347Z,6.20
2018-07-27T09:51:32.459Z,6.97
2018-07-27T09:54:30.117Z,4.95
2018-07-27T09:57:27.275Z,6.87
2018-07-27T10:01:28.323Z,5.35
2018-07-27T10:04:25.870Z,4.97
2018-07-27T10:07:23.818Z,4.90
2018-07-27T10:10:21.849Z,5.17
2018-07-27T10:13:19.947Z,4.33
2018-07-27T10:16:17.410Z,4.22
2018-07-27T10:19:15.628Z,3.33
2018-07-27T10:22:12.976Z,4.45
2018-07-27T10:25:10.588Z,4.25
2018-07-27T10:28:08.097Z,4.20
2018-07-27T10:31:05.971Z,3.08
2018-07-27T10:34:04.077Z,3.60
2018-07-27T10:37:01.218Z,2.58
2018-07-27T10:39:59.228Z,3.30
2018-07-27T10:42:56.383Z,3.08
2018-07-27T10:45:53.523Z,4.58
2018-07-27T10:48:50.582Z,3.30
2018-07-27T10:51:48.256Z,3.27
2018-07-27T10:54:45.367Z,3.40
2018-07-27T10:57:42.436Z,3.85
2018-07-27T11:00:40.521Z,3.83
2018-07-27T11:03:38.380Z,4.12
2018-07-27T11:06:36.133Z,4.10
2018-07-27T11:09:33.453Z,3.75
2018-07-27T11:12:30.780Z,3.33
2018-07-27T11:15:27.871Z,4.15
2018-07-27T11:18:24.896Z,3.47
2018-07-27T11:21:21.868Z,3.22
2018-07-27T11:24:19.876Z,4.08
2018-07-27T11:27:17.987Z,4.50
2018-07-27T11:30:15.940Z,3.92
2018-07-27T11:33:13.943Z,3.95
2018-07-27T11:36:11.275Z,6.00
2018-07-27T11:39:08.748Z,6.03
2018-07-27T11:42:06.372Z,5.05
2018-07-27T11:45:03.968Z,6.12
2018-07-27T11:48:01.670Z,5.15
2018-07-27T11:50:59.792Z,5.20
2018-07-27T11:53:57.760Z,6.40
2018-07-27T11:56:55.499Z,4.92
2018-07-27T11:59:52.864Z,4.40
2018-07-27T12:02:50.705Z,4.75
2018-07-27T12:05:47.847Z,4.75
2018-07-27T12:08:45.216Z,5.22
2018-07-27T12:11:42.727Z,4.55
2018-07-27T12:14:40.277Z,5.00
2018-07-27T12:17:37.231Z,4.40
2018-07-27T12:20:34.609Z,4.87
2018-07-27T12:23:32.216Z,5.70
2018-07-27T12:26:29.788Z,5.28
2018-07-27T12:29:27.528Z,5.25
2018-07-27T12:32:24.955Z,5.15
2018-07-27T12:35:23.011Z,5.33
2018-07-27T12:38:21.076Z,6.62
2018-07-27T12:41:19.144Z,4.92
2018-07-27T12:44:16.824Z,5.85
2018-07-27T12:47:13.955Z,5.17
2018-07-27T12:50:11.460Z,5.47
2018-07-27T12:53:09.405Z,5.90
2018-07-27T12:56:07.768Z,6.10
2018-07-27T12:59:05.678Z,5.33
2018-07-27T13:02:03.523Z,5.80
2018-07-27T13:05:01.168Z,5.70
2018-07-27T13:07:59.008Z,6.30
2018-07-27T13:10:57.037Z,5.33
2018-07-27T13:13:54.398Z,5.58
2018-07-27T13:16:51.780Z,6.78
2018-07-27T13:19:49.578Z,8.38
2018-07-27T13:22:46.896Z,5.92
2018-07-27T13:25:44.464Z,6.42
2018-07-27T13:28:41.655Z,6.53
2018-07-27T13:32:12.340Z,8.75
2018-07-27T13:35:09.928Z,6.62
2018-07-27T13:38:07.853Z,6.00
2018-07-27T13:41:05.281Z,5.35
2018-07-27T13:44:03.299Z,5.40
2018-07-27T13:47:00.394Z,4.85
2018-07-27T13:49:58.423Z,4.10
2018-07-27T13:52:55.455Z,5.22
2018-07-27T13:56:01.785Z,5.00
2018-07-27T13:58:59.072Z,5.03
2018-07-27T14:01:57.269Z,4.50
2018-07-27T14:04:55.099Z,4.60
2018-07-27T14:07:52.131Z,4.28
2018-07-27T14:10:49.716Z,4.87
2018-07-27T14:13:47.764Z,4.97
2018-07-27T14:16:45.387Z,4.55
2018-07-27T14:19:42.954Z,5.87
2018-07-27T14:22:40.520Z,7.25
2018-07-27T14:25:38.155Z,5.60
2018-07-27T14:28:35.620Z,6.35
2018-07-27T14:31:32.833Z,5.30
2018-07-27T14:34:30.837Z,5.37
2018-07-27T14:37:28.047Z,5.03
2018-07-27T14:40:25.371Z,5.08
2018-07-27T14:43:23.472Z,6.12
2018-07-27T14:46:21.639Z,6.72
2018-07-27T14:49:19.874Z,5.20
2018-07-27T14:52:17.514Z,5.15
2018-07-27T14:55:14.924Z,7.03
2018-07-27T14:58:13.530Z,6.22
2018-07-27T15:01:11.208Z,5.20
2018-07-27T15:04:08.321Z,4.95
2018-07-27T15:07:05.427Z,5.15
2018-07-27T15:10:03.399Z,5.28
2018-07-27T15:13:01.547Z,5.20
2018-07-27T15:15:58.957Z,5.47
2018-07-27T15:18:56.590Z,4.72
2018-07-27T15:21:54.520Z,5.62
2018-07-27T15:24:52.408Z,5.80
2018-07-27T15:27:49.960Z,5.65
2018-07-27T15:30:47.167Z,5.20
2018-07-27T15:33:44.295Z,5.72
2018-07-27T15:36:42.048Z,6.03
2018-07-27T15:39:39.464Z,5.67
2018-07-27T15:42:37.319Z,5.78
2018-07-27T15:45:34.556Z,6.37
2018-07-27T15:48:31.833Z,6.47
2018-07-27T15:51:29.432Z,7.70
2018-07-27T15:54:27.499Z,7.03
2018-07-27T15:57:24.793Z,6.05
2018-07-27T16:00:22.374Z,6.28
2018-07-27T16:03:20.243Z,6.47
2018-07-27T16:06:17.591Z,5.58
2018-07-27T16:09:16.030Z,6.87
2018-07-27T16:12:13.439Z,6.50
2018-07-27T16:15:10.384Z,6.72
2018-07-27T16:18:08.356Z,6.30
2018-07-27T16:21:05.514Z,5.53
2018-07-27T16:24:03.516Z,6.47
2018-07-27T16:27:01.315Z,6.70
2018-07-27T16:29:59.031Z,6.00
2018-07-27T16:32:57.095Z,6.22
2018-07-27T16:35:55.209Z,7.20
2018-07-27T16:38:52.782Z,6.00
2018-07-27T16:41:50.409Z,6.20
2018-07-27T16:44:47.473Z,6.25
2018-07-27T16:47:44.932Z,5.87
2018-07-27T16:50:42.359Z,6.20
2018-07-27T16:53:39.678Z,6.12
2018-07-27T16:56:37.208Z,6.25
2018-07-27T16:59:34.416Z,8.20
2018-07-27T17:02:32.142Z,6.40
2018-07-27T17:05:29.314Z,7.03
2018-07-27T17:08:27.075Z,6.45
2018-07-27T17:11:24.685Z,6.90
2018-07-27T17:14:22.358Z,7.43
2018-07-27T17:17:19.690Z,7.78
2018-07-27T17:20:17.563Z,6.92
2018-07-27T17:23:15.292Z,7.92
2018-07-27T17:26:12.597Z,9.65
2018-07-27T17:29:10.655Z,7.78
2018-07-27T17:32:08.626Z,7.23
2018-07-27T17:35:06.531Z,7.50
2018-07-27T17:38:03.996Z,9.07
2018-07-27T17:41:01.724Z,7.77
2018-07-27T17:43:58.995Z,8.00
2018-07-27T17:46:56.960Z,7.07
2018-07-27T17:49:53.932Z,8.07
2018-07-27T17:52:51.153Z,10.43
2018-07-27T17:55:49.083Z,8.27
2018-07-27T17:58:46.905Z,7.83
2018-07-27T18:01:44.155Z,9.00
2018-07-27T18:04:41.597Z,7.70
2018-07-27T18:07:39.377Z,7.97
2018-07-27T18:10:36.972Z,8.43
2018-07-27T18:13:34.755Z,8.77
2018-07-27T18:16:31.800Z,8.00
2018-07-27T18:19:29.572Z,12.27
2018-07-27T18:22:27.290Z,8.77
2018-07-27T18:25:25.631Z,8.30
2018-07-27T18:28:23.628Z,9.80
2018-07-27T18:31:21.887Z,7.93
2018-07-27T18:34:20.016Z,10.10
2018-07-27T18:37:18.239Z,8.47
2018-07-27T18:40:16.596Z,9.90
2018-07-27T18:43:14.314Z,8.50
2018-07-27T18:46:11.969Z,8.67
2018-07-27T18:49:09.392Z,8.60
2018-07-27T18:52:07.416Z,7.90
2018-07-27T18:55:05.492Z,12.73
2018-07-27T18:58:02.858Z,8.73
2018-07-27T19:01:00.588Z,8.97
2018-07-27T19:03:57.673Z,8.40
2018-07-27T19:06:54.766Z,9.40
2018-07-27T19:09:52.246Z,8.67
2018-07-27T19:12:49.686Z,9.67
2018-07-27T19:15:47.571Z,8.90
2018-07-27T19:18:44.690Z,9.30
2018-07-27T19:21:42.200Z,9.43
2018-07-27T19:24:39.888Z,9.50
2018-07-27T19:27:37.359Z,8.83
2018-07-27T19:30:35.104Z,8.87
2018-07-27T19:33:32.381Z,12.27
2018-07-27T19:36:29.700Z,12.50
2018-07-27T19:39:29.148Z,12.20
2018-07-27T19:42:26.283Z,8.87
2018-07-27T19:45:24.374Z,9.70
2018-07-27T19:48:21.714Z,8.60
2018-07-27T19:51:19.587Z,7.80
2018-07-27T19:54:17.523Z,9.70
2018-07-27T19:57:14.924Z,7.40
2018-07-27T20:00:12.348Z,10.30
2018-07-27T20:03:10.447Z,7.83
2018-07-27T20:06:08.059Z,8.50
2018-07-27T20:09:05.276Z,7.70
2018-07-27T20:12:03.176Z,9.27
2018-07-27T20:15:01.041Z,9.07
2018-07-27T20:17:59.084Z,8.23
2018-07-27T20:20:56.264Z,10.30
2018-07-27T20:23:53.540Z,9.13
2018-07-27T20:26:51.276Z,8.83
2018-07-27T20:29:48.952Z,7.47
2018-07-27T20:32:46.739Z,9.87
2018-07-27T20:35:44.910Z,8.50
2018-07-27T20:38:42.356Z,7.27
2018-07-27T20:41:40.053Z,9.93
2018-07-27T20:44:37.751Z,10.17
2018-07-27T20:47:35.496Z,10.53
2018-07-27T20:50:33.067Z,10.43
2018-07-27T20:53:30.847Z,9.63
2018-07-27T20:56:28.892Z,12.13
2018-07-27T20:59:26.015Z,9.17
2018-07-27T21:02:23.943Z,8.20
2018-07-27T21:05:21.955Z,9.67
2018-07-27T21:08:19.238Z,9.97
2018-07-27T21:11:17.473Z,9.00
2018-07-27T21:14:14.552Z,7.80
2018-07-27T21:17:12.561Z,11.83
2018-07-27T21:20:09.794Z,8.20
2018-07-27T21:23:07.844Z,10.13
2018-07-27T21:26:05.903Z,9.30
2018-07-27T21:29:03.049Z,9.80
2018-07-27T21:32:00.995Z,10.10
2018-07-27T21:34:58.250Z,12.20
2018-07-27T21:37:56.330Z,7.20
2018-07-27T21:40:54.318Z,9.60
2018-07-27T21:43:51.571Z,8.57
2018-07-27T21:46:49.730Z,9.37
2018-07-27T21:49:47.087Z,9.50
2018-07-27T21:52:44.344Z,10.13
2018-07-27T21:55:42.437Z,9.23
2018-07-27T21:58:40.583Z,8.07
2018-07-27T22:01:37.749Z,8.43
2018-07-27T22:04:35.948Z,7.80
2018-07-27T22:07:33.352Z,7.43
2018-07-27T22:10:32.179Z,7.83
2018-07-27T22:13:30.320Z,13.37
2018-07-27T22:16:28.165Z,9.77
2018-07-27T22:19:26.191Z,7.57
2018-07-27T22:22:24.208Z,11.30
2018-07-27T22:25:22.372Z,8.93
2018-07-27T22:28:20.256Z,8.47
2018-07-27T22:31:18.297Z,8.47
2018-07-27T22:34:16.456Z,9.30
2018-07-27T22:37:13.484Z,8.47
2018-07-27T22:40:11.574Z,11.30
2018-07-27T22:43:09.447Z,9.30
2018-07-27T22:46:07.484Z,8.77
2018-07-27T22:49:05.671Z,9.70
2018-07-27T22:52:03.539Z,8.93
2018-07-27T22:55:00.802Z,8.10
2018-07-27T22:57:58.851Z,8.23
2018-07-27T23:00:56.181Z,9.50
2018-07-27T23:03:53.169Z,10.00
2018-07-27T23:06:50.362Z,9.90
2018-07-27T23:09:48.355Z,9.23
2018-07-27T23:12:46.080Z,9.20
2018-07-27T23:15:43.973Z,10.13
2018-07-27T23:18:41.409Z,13.63
2018-07-27T23:21:38.919Z,8.00
2018-07-27T23:24:36.989Z,7.97
2018-07-27T23:27:34.911Z,8.47
2018-07-27T23:30:32.793Z,8.67
2018-07-27T23:33:29.843Z,9.10
2018-07-27T23:36:27.752Z,9.23
2018-07-27T23:39:25.643Z,9.93
2018-07-27T23:42:23.402Z,10.47
2018-07-27T23:45:22.187Z,10.20
2018-07-27T23:48:20.032Z,8.40
2018-07-27T23:51:18.000Z,8.67
2018-07-27T23:54:15.868Z,10.47
2018-07-27T23:57:13.962Z,8.93
